createdAt,value
2023-11-15T00:00:32.738Z,7.53
2023-11-15T00:03:00.141Z,7.49
2023-11-15T00:05:30.604Z,7.43
2023-11-15T00:07:58.003Z,7.47
2023-11-15T00:10:25.321Z,7.53
2023-11-15T00:12:53.093Z,7.48
2023-11-15T00:15:20.445Z,7.46
2023-11-15T00:17:47.697Z,7.47
2023-11-15T00:20:15.009Z,7.47
2023-11-15T00:22:43.062Z,7.47
2023-11-15T00:25:10.520Z,7.45
2023-11-15T00:27:37.885Z,7.46
2023-11-15T00:30:06.510Z,7.39
2023-11-15T00:32:34.006Z,7.45
2023-11-15T00:35:01.240Z,7.47
2023-11-15T00:37:28.393Z,7.48
2023-11-15T00:39:55.622Z,7.54
2023-11-15T00:42:23.193Z,7.52
2023-11-15T00:44:50.671Z,7.50
2023-11-15T00:47:17.903Z,7.52
2023-11-15T00:49:45.433Z,7.47
2023-11-15T00:52:15.236Z,7.42
2023-11-15T00:54:42.711Z,7.39
2023-11-15T00:57:09.952Z,7.34
2023-11-15T00:59:45.591Z,7.24
2023-11-15T01:02:15.280Z,7.10
2023-11-15T01:04:42.819Z,7.05
2023-11-15T01:07:10.047Z,7.03
2023-11-15T01:09:37.602Z,7.01
2023-11-15T01:12:08.535Z,6.98
2023-11-15T01:14:36.434Z,6.96
2023-11-15T01:17:04.476Z,6.99
2023-11-15T01:19:32.006Z,7.02
2023-11-15T01:21:59.180Z,7.01
2023-11-15T01:24:27.021Z,7.06
2023-11-15T01:26:54.353Z,7.11
2023-11-15T01:29:21.750Z,7.13
2023-11-15T01:31:48.993Z,7.16
2023-11-15T01:34:18.268Z,7.12
2023-11-15T01:36:46.549Z,7.12
2023-11-15T01:39:17.710Z,7.14
2023-11-15T01:41:50.096Z,7.17
2023-11-15T01:44:18.156Z,7.09
2023-11-15T01:46:51.147Z,7.15
2023-11-15T01:49:21.662Z,7.16
2023-11-15T01:51:51.583Z,7.12
2023-11-15T01:54:19.949Z,7.06
2023-11-15T01:56:47.331Z,7.05
2023-11-15T01:59:15.454Z,7.07
2023-11-15T02:01:43.285Z,7.04
2023-11-15T02:04:11.015Z,6.94
2023-11-15T02:06:38.500Z,7.02
2023-11-15T02:09:09.859Z,6.99
2023-11-15T02:11:37.356Z,6.95
2023-11-15T02:14:04.976Z,6.89
2023-11-15T02:16:32.357Z,6.91
2023-11-15T02:19:00.022Z,6.90
2023-11-15T02:21:27.151Z,6.87
2023-11-15T02:23:56.197Z,6.88
2023-11-15T02:26:23.545Z,6.88
2023-11-15T02:28:50.725Z,6.85
2023-11-15T02:31:17.925Z,6.73
2023-11-15T02:33:46.245Z,6.74
2023-11-15T02:36:13.844Z,6.75
2023-11-15T02:38:41.438Z,6.79
2023-11-15T02:41:10.179Z,6.75
2023-11-15T02:43:37.361Z,6.77
2023-11-15T02:46:04.742Z,6.80
2023-11-15T02:48:32.239Z,6.79
2023-11-15T02:50:59.754Z,6.87
2023-11-15T02:53:27.027Z,6.81
2023-11-15T02:55:54.307Z,6.78
2023-11-15T02:58:21.511Z,6.78
2023-11-15T03:00:48.616Z,6.80
2023-11-15T03:03:16.191Z,6.82
2023-11-15T03:05:43.468Z,6.75
2023-11-15T03:08:10.791Z,6.70
2023-11-15T03:10:38.749Z,6.64
2023-11-15T03:13:06.065Z,6.62
2023-11-15T03:15:33.458Z,6.54
2023-11-15T03:18:01.025Z,6.53
2023-11-15T03:20:28.358Z,6.51
2023-11-15T03:22:55.458Z,6.46
2023-11-15T03:25:22.982Z,6.46
2023-11-15T03:27:56.811Z,6.50
2023-11-15T03:30:24.429Z,6.51
2023-11-15T03:32:51.779Z,6.48
2023-11-15T03:35:23.449Z,6.38
2023-11-15T03:37:51.918Z,6.39
2023-11-15T03:40:20.979Z,6.38
2023-11-15T03:42:48.667Z,6.29
2023-11-15T03:45:16.233Z,6.33
2023-11-15T03:47:43.574Z,6.38
2023-11-15T03:50:12.907Z,6.45
2023-11-15T03:52:40.193Z,6.47
2023-11-15T03:55:07.740Z,6.47
2023-11-15T03:57:34.870Z,6.43
2023-11-15T04:00:02.228Z,6.48
2023-11-15T04:02:41.115Z,6.55
2023-11-15T04:05:10.590Z,6.54
2023-11-15T04:07:38.712Z,6.57
2023-11-15T04:10:07.381Z,6.60
2023-11-15T04:12:35.207Z,6.65
2023-11-15T04:15:04.873Z,6.63
2023-11-15T04:17:32.075Z,6.67
2023-11-15T04:19:59.301Z,6.74
2023-11-15T04:22:27.837Z,6.77
2023-11-15T04:24:55.076Z,6.78
2023-11-15T04:27:22.183Z,6.81
2023-11-15T04:29:49.378Z,6.80
2023-11-15T04:32:16.596Z,6.84
2023-11-15T04:34:43.855Z,6.85
2023-11-15T04:37:11.103Z,6.85
2023-11-15T04:39:38.217Z,6.82
2023-11-15T04:42:05.637Z,6.84
2023-11-15T04:44:32.960Z,6.83
2023-11-15T04:47:00.347Z,6.96
2023-11-15T04:49:27.703Z,6.93
2023-11-15T04:51:54.813Z,6.95
2023-11-15T04:54:21.993Z,6.97
2023-11-15T04:56:49.395Z,7.10
2023-11-15T04:59:16.783Z,7.01
2023-11-15T05:01:47.029Z,7.03
2023-11-15T05:04:17.635Z,7.04
2023-11-15T05:06:45.782Z,7.06
2023-11-15T05:09:13.011Z,7.04
2023-11-15T05:11:40.417Z,7.04
2023-11-15T05:14:08.160Z,6.98
2023-11-15T05:16:36.206Z,7.03
2023-11-15T05:19:03.361Z,6.99
2023-11-15T05:21:30.701Z,6.90
2023-11-15T05:23:58.595Z,6.92
2023-11-15T05:26:26.570Z,6.94
2023-11-15T05:28:53.815Z,6.84
2023-11-15T05:31:20.988Z,6.72
2023-11-15T05:33:48.049Z,6.74
2023-11-15T05:36:15.336Z,6.58
2023-11-15T05:38:42.791Z,6.55
2023-11-15T05:41:09.933Z,6.51
2023-11-15T05:43:37.009Z,6.57
2023-11-15T05:46:04.701Z,6.61
2023-11-15T05:48:34.465Z,6.68
2023-11-15T05:51:03.059Z,6.72
2023-11-15T05:53:30.509Z,6.76
2023-11-15T05:55:58.961Z,6.79
2023-11-15T05:58:26.122Z,6.74
2023-11-15T06:00:53.465Z,6.81
2023-11-15T06:03:21.155Z,6.83
2023-11-15T06:05:48.839Z,6.85
2023-11-15T06:08:16.097Z,6.88
2023-11-15T06:10:44.228Z,6.87
2023-11-15T06:13:11.770Z,6.87
2023-11-15T06:15:38.979Z,6.94
2023-11-15T06:18:07.924Z,6.93
2023-11-15T06:20:35.488Z,6.92
2023-11-15T06:23:02.812Z,6.97
2023-11-15T06:25:30.275Z,6.98
2023-11-15T06:27:57.609Z,7.04
2023-11-15T06:30:25.294Z,7.06
2023-11-15T06:32:52.512Z,7.08
2023-11-15T06:35:20.486Z,7.01
2023-11-15T06:37:48.254Z,7.03
2023-11-15T06:40:17.255Z,7.10
2023-11-15T06:42:44.709Z,7.06
2023-11-15T06:45:13.767Z,7.13
2023-11-15T06:47:42.527Z,7.18
2023-11-15T06:50:09.999Z,7.24
2023-11-15T06:52:39.429Z,7.18
2023-11-15T06:55:10.914Z,7.22
2023-11-15T06:57:39.636Z,7.36
2023-11-15T07:00:09.969Z,7.51
2023-11-15T07:02:37.609Z,7.49
2023-11-15T07:05:07.152Z,7.63
2023-11-15T07:07:34.723Z,7.68
2023-11-15T07:10:04.501Z,7.68
2023-11-15T07:12:32.265Z,7.81
2023-11-15T07:15:00.357Z,7.73
2023-11-15T07:17:27.633Z,7.71
2023-11-15T07:19:54.757Z,7.74
2023-11-15T07:22:21.884Z,7.77
2023-11-15T07:24:49.036Z,7.85
2023-11-15T07:27:18.794Z,7.94
2023-11-15T07:29:46.616Z,7.87
2023-11-15T07:32:13.826Z,7.92
2023-11-15T07:34:41.504Z,8.11
2023-11-15T07:37:09.327Z,8.07
2023-11-15T07:39:36.546Z,8.09
2023-11-15T07:42:03.771Z,8.15
2023-11-15T07:44:31.663Z,8.14
2023-11-15T07:47:00.568Z,8.10
2023-11-15T07:49:30.109Z,8.22
2023-11-15T07:51:57.377Z,8.39
2023-11-15T07:54:25.178Z,8.30
2023-11-15T07:56:52.545Z,8.41
2023-11-15T07:59:20.974Z,8.45
2023-11-15T08:01:49.164Z,8.47
2023-11-15T08:04:17.245Z,8.40
2023-11-15T08:06:44.703Z,8.45
2023-11-15T08:09:25.951Z,8.44
2023-11-15T08:11:57.915Z,8.57
2023-11-15T08:14:27.187Z,8.70
2023-11-15T08:16:55.944Z,8.90
2023-11-15T08:19:23.870Z,8.92
2023-11-15T08:21:53.186Z,8.86
2023-11-15T08:24:23.423Z,8.74
2023-11-15T08:26:54.504Z,8.80
2023-11-15T08:29:22.723Z,8.86
2023-11-15T08:31:50.945Z,8.79
2023-11-15T08:34:23.613Z,8.82
2023-11-15T08:36:52.175Z,9.04
2023-11-15T08:39:19.905Z,9.12
2023-11-15T08:41:48.944Z,9.13
2023-11-15T08:44:18.904Z,9.07
2023-11-15T08:46:46.806Z,9.04
2023-11-15T08:49:17.219Z,9.08
2023-11-15T08:51:48.992Z,9.17
2023-11-15T08:54:17.614Z,9.18
2023-11-15T08:56:46.763Z,8.99
2023-11-15T08:59:17.190Z,9.04
2023-11-15T09:01:45.894Z,9.13
2023-11-15T09:04:18.189Z,9.39
2023-11-15T09:06:49.419Z,9.35
2023-11-15T09:09:17.837Z,9.44
2023-11-15T09:11:48.541Z,9.43
2023-11-15T09:14:16.514Z,9.38
2023-11-15T09:16:45.805Z,9.46
2023-11-15T09:19:18.048Z,9.59
2023-11-15T09:21:49.261Z,9.57
2023-11-15T09:24:23.838Z,9.64
2023-11-15T09:26:52.772Z,9.63
2023-11-15T09:29:21.025Z,9.72
2023-11-15T09:31:48.399Z,9.72
2023-11-15T09:34:17.573Z,9.65
2023-11-15T09:36:44.960Z,9.51
2023-11-15T09:39:12.231Z,9.51
2023-11-15T09:41:39.483Z,9.38
2023-11-15T09:44:12.476Z,9.30
2023-11-15T09:46:41.552Z,9.39
2023-11-15T09:49:09.719Z,9.49
2023-11-15T09:51:38.895Z,9.45
2023-11-15T09:54:13.164Z,9.56
2023-11-15T09:56:46.501Z,9.57
2023-11-15T09:59:15.393Z,9.62
2023-11-15T10:01:47.841Z,9.65
2023-11-15T10:04:24.363Z,9.63
2023-11-15T10:07:03.683Z,9.70
2023-11-15T10:09:40.835Z,9.70
2023-11-15T10:12:09.383Z,9.76
2023-11-15T10:14:52.378Z,9.94
2023-11-15T10:17:22.122Z,9.93
2023-11-15T10:19:49.883Z,9.83
2023-11-15T10:22:19.094Z,9.80
2023-11-15T10:25:06.183Z,9.60
2023-11-15T10:27:37.220Z,9.60
2023-11-15T10:30:14.173Z,9.78
2023-11-15T10:32:46.717Z,9.79
2023-11-15T10:35:28.949Z,9.89
2023-11-15T10:37:57.039Z,9.90
2023-11-15T10:40:27.371Z,9.89
2023-11-15T10:42:56.661Z,9.79
2023-11-15T10:45:29.327Z,9.76
2023-11-15T10:48:05.710Z,9.85
2023-11-15T10:50:43.048Z,9.97
2023-11-15T10:53:12.169Z,10.09
2023-11-15T10:55:40.893Z,10.10
2023-11-15T10:58:12.896Z,10.06
2023-11-15T11:00:44.797Z,10.09
2023-11-15T11:03:14.802Z,10.14
2023-11-15T11:06:04.172Z,10.24
2023-11-15T11:09:05.291Z,10.14
2023-11-15T11:11:43.410Z,10.13
2023-11-15T11:14:20.297Z,10.06
2023-11-15T11:16:48.671Z,10.13
2023-11-15T11:19:27.238Z,10.11
2023-11-15T11:22:03.427Z,10.12
2023-11-15T11:24:34.057Z,9.98
2023-11-15T11:27:13.832Z,9.94
2023-11-15T11:29:59.230Z,10.00
2023-11-15T11:32:28.667Z,9.98
2023-11-15T11:35:01.954Z,9.98
2023-11-15T11:37:46.421Z,10.11
2023-11-15T11:40:20.114Z,10.10
2023-11-15T11:42:49.263Z,10.16
2023-11-15T11:45:21.124Z,10.18
2023-11-15T11:47:49.875Z,10.21
2023-11-15T11:50:23.996Z,10.15
2023-11-15T11:52:55.533Z,10.12
2023-11-15T11:55:23.482Z,10.03
2023-11-15T11:57:51.272Z,10.07
2023-11-15T12:05:50.232Z,9.99
2023-11-15T12:08:17.892Z,9.85
2023-11-15T12:10:46.215Z,9.81
2023-11-15T12:13:14.301Z,9.92
2023-11-15T12:15:41.734Z,9.91
2023-11-15T12:18:11.207Z,9.84
2023-11-15T12:20:40.874Z,9.89
2023-11-15T12:23:10.899Z,9.87
2023-11-15T12:25:58.723Z,9.84
2023-11-15T12:28:27.462Z,9.78
2023-11-15T12:30:58.100Z,9.90
2023-11-15T12:33:28.211Z,9.94
2023-11-15T12:35:56.388Z,9.98
2023-11-15T12:38:23.837Z,10.00
2023-11-15T12:41:04.851Z,10.03
2023-11-15T12:43:33.593Z,10.07
2023-11-15T12:46:14.455Z,10.00
2023-11-15T12:48:42.501Z,9.92
2023-11-15T12:51:10.295Z,9.92
2023-11-15T12:53:37.687Z,9.99
2023-11-15T12:56:05.472Z,9.93
2023-11-15T12:58:32.767Z,9.90
2023-11-15T13:01:12.612Z,9.86
2023-11-15T13:03:41.238Z,9.84
2023-11-15T13:06:19.437Z,9.96
2023-11-15T13:08:51.748Z,9.94
2023-11-15T13:11:23.616Z,9.94
2023-11-15T13:13:51.347Z,9.91
2023-11-15T13:16:19.991Z,9.89
2023-11-15T13:18:49.157Z,9.94
2023-11-15T13:21:18.026Z,9.99
2023-11-15T13:23:46.838Z,9.98
2023-11-15T13:26:16.198Z,9.90
2023-11-15T13:28:45.649Z,9.89
2023-11-15T13:31:16.300Z,9.87
2023-11-15T13:33:49.180Z,9.78
2023-11-15T13:36:20.588Z,9.74
2023-11-15T13:38:48.655Z,9.77
2023-11-15T13:41:21.764Z,9.73
2023-11-15T13:43:49.213Z,9.79
2023-11-15T13:46:19.857Z,9.72
2023-11-15T13:48:47.342Z,9.68
2023-11-15T13:51:19.353Z,9.71
2023-11-15T13:53:46.943Z,9.74
2023-11-15T13:56:14.234Z,9.75
2023-11-15T13:58:41.414Z,9.77
2023-11-15T14:01:09.623Z,9.74
2023-11-15T14:03:37.217Z,9.73
2023-11-15T14:06:07.219Z,9.75
2023-11-15T14:08:47.377Z,9.78
2023-11-15T14:11:23.819Z,9.77
2023-11-15T14:13:51.142Z,9.78
2023-11-15T14:16:18.417Z,9.72
2023-11-15T14:18:48.843Z,9.70
2023-11-15T14:21:16.686Z,9.75
2023-11-15T14:23:44.702Z,9.81
2023-11-15T14:26:15.183Z,9.83
2023-11-15T14:28:47.062Z,9.79
2023-11-15T14:31:14.475Z,9.77
2023-11-15T14:33:42.118Z,9.77
2023-11-15T14:36:11.179Z,9.78
2023-11-15T14:38:38.712Z,9.79
2023-11-15T14:41:06.216Z,9.71
2023-11-15T14:43:33.783Z,9.76
2023-11-15T14:46:01.162Z,9.68
2023-11-15T14:48:28.613Z,9.76
2023-11-15T14:50:58.404Z,9.70
2023-11-15T14:53:25.698Z,9.73
2023-11-15T14:55:53.173Z,9.65
2023-11-15T14:58:20.775Z,9.66
2023-11-15T15:00:48.166Z,9.69
2023-11-15T15:03:16.394Z,9.61
2023-11-15T15:05:45.109Z,9.53
2023-11-15T15:08:15.217Z,9.54
2023-11-15T15:10:42.957Z,9.63
2023-11-15T15:13:11.221Z,9.65
2023-11-15T15:15:39.827Z,9.57
2023-11-15T15:18:13.439Z,9.55
2023-11-15T15:20:45.297Z,9.53
2023-11-15T15:23:14.084Z,9.56
2023-11-15T15:25:43.652Z,9.62
2023-11-15T15:28:11.332Z,9.66
2023-11-15T15:30:38.801Z,9.61
2023-11-15T15:33:08.622Z,9.59
2023-11-15T15:35:39.428Z,9.54
2023-11-15T15:38:09.591Z,9.58
2023-11-15T15:40:38.130Z,9.52
2023-11-15T15:43:05.495Z,9.52
2023-11-15T15:45:32.749Z,9.51
2023-11-15T15:48:00.679Z,9.47
2023-11-15T15:50:28.391Z,9.46
2023-11-15T15:52:56.302Z,9.45
2023-11-15T15:55:23.762Z,9.45
2023-11-15T15:57:51.302Z,9.48
2023-11-15T16:00:18.938Z,9.52
2023-11-15T16:02:51.034Z,9.54
2023-11-15T16:05:19.348Z,9.57
2023-11-15T16:07:46.617Z,9.57
2023-11-15T16:10:14.355Z,9.58
2023-11-15T16:12:41.740Z,9.60
2023-11-15T16:15:17.447Z,9.69
2023-11-15T16:17:45.321Z,9.60
2023-11-15T16:20:18.515Z,9.58
2023-11-15T16:22:46.029Z,9.63
2023-11-15T16:25:13.483Z,9.67
2023-11-15T16:27:41.382Z,9.72
2023-11-15T16:30:10.710Z,9.64
2023-11-15T16:32:38.394Z,9.58
2023-11-15T16:35:09.373Z,9.57
2023-11-15T16:37:39.428Z,9.58
2023-11-15T16:40:09.513Z,9.64
2023-11-15T16:42:37.098Z,9.58
2023-11-15T16:45:08.015Z,9.58
2023-11-15T16:47:37.198Z,9.69
2023-11-15T16:50:05.747Z,9.68
2023-11-15T16:52:36.229Z,9.65
2023-11-15T16:55:04.483Z,9.68
2023-11-15T16:57:32.130Z,9.66
2023-11-15T17:00:00.279Z,9.66
2023-11-15T17:02:28.167Z,9.62
2023-11-15T17:04:55.412Z,9.58
2023-11-15T17:07:23.058Z,9.62
2023-11-15T17:09:53.423Z,9.59
2023-11-15T17:12:20.927Z,9.56
2023-11-15T17:14:48.425Z,9.59
2023-11-15T17:17:16.633Z,9.58
2023-11-15T17:19:45.811Z,9.65
2023-11-15T17:22:14.775Z,9.69
2023-11-15T17:24:45.084Z,9.69
2023-11-15T17:27:13.493Z,9.71
2023-11-15T17:29:40.907Z,9.73
2023-11-15T17:32:08.528Z,9.77
2023-11-15T17:34:35.815Z,9.72
2023-11-15T17:37:03.729Z,9.73
2023-11-15T17:39:31.533Z,9.85
2023-11-15T17:41:59.185Z,9.85
2023-11-15T17:44:26.550Z,9.89
2023-11-15T17:46:54.057Z,9.85
2023-11-15T17:49:21.713Z,9.90
2023-11-15T17:51:49.949Z,9.86
2023-11-15T17:54:19.500Z,9.88
2023-11-15T17:56:46.905Z,9.84
2023-11-15T17:59:14.282Z,9.89
2023-11-15T18:01:41.539Z,9.85
2023-11-15T18:04:10.824Z,9.84
2023-11-15T18:06:40.006Z,9.83
2023-11-15T18:09:08.911Z,9.84
2023-11-15T18:11:36.617Z,9.94
2023-11-15T18:14:04.055Z,9.95
2023-11-15T18:16:31.914Z,9.96
2023-11-15T18:19:06.193Z,9.89
2023-11-15T18:21:34.159Z,9.90
2023-11-15T18:24:02.235Z,9.91
2023-11-15T18:26:31.327Z,9.89
2023-11-15T18:28:58.991Z,9.89
2023-11-15T18:31:27.618Z,9.91
2023-11-15T18:33:57.864Z,9.93
2023-11-15T18:36:25.991Z,9.91
2023-11-15T18:38:53.779Z,9.93
2023-11-15T18:41:21.360Z,9.90
2023-11-15T18:43:50.269Z,9.97
2023-11-15T18:46:18.131Z,10.00
2023-11-15T18:48:45.783Z,10.04
2023-11-15T18:51:13.640Z,10.04
2023-11-15T18:53:41.900Z,10.00
2023-11-15T18:56:09.341Z,10.02
2023-11-15T18:58:37.343Z,10.00
2023-11-15T19:01:05.829Z,9.95
2023-11-15T19:03:33.293Z,10.04
2023-11-15T19:06:00.708Z,10.08
2023-11-15T19:08:32.028Z,10.13
2023-11-15T19:10:59.282Z,10.14
2023-11-15T19:13:28.261Z,10.12
2023-11-15T19:15:55.754Z,10.11
2023-11-15T19:18:23.559Z,10.06
2023-11-15T19:20:51.717Z,10.08
2023-11-15T19:23:20.968Z,10.08
2023-11-15T19:25:48.174Z,10.07
2023-11-15T19:28:17.076Z,10.09
2023-11-15T19:30:50.336Z,10.08
2023-11-15T19:33:18.440Z,10.11
2023-11-15T19:35:47.006Z,10.15
2023-11-15T19:38:14.518Z,10.09
2023-11-15T19:40:41.978Z,10.01
2023-11-15T19:43:10.672Z,10.01
2023-11-15T19:45:39.379Z,10.05
2023-11-15T19:48:09.602Z,10.00
2023-11-15T19:50:36.965Z,10.01
2023-11-15T19:53:08.326Z,9.94
2023-11-15T19:55:36.939Z,9.88
2023-11-15T19:58:05.842Z,9.82
2023-11-15T20:00:36.430Z,9.83
2023-11-15T20:03:04.905Z,9.84
2023-11-15T20:05:32.214Z,9.85
2023-11-15T20:07:59.665Z,9.84
2023-11-15T20:10:29.271Z,9.84
2023-11-15T20:12:56.642Z,9.82
2023-11-15T20:15:24.181Z,9.80
2023-11-15T20:17:52.508Z,9.82
2023-11-15T20:20:21.646Z,9.79
2023-11-15T20:22:52.297Z,9.81
2023-11-15T20:25:21.155Z,9.85
2023-11-15T20:27:48.459Z,9.81
2023-11-15T20:30:16.055Z,9.84
2023-11-15T20:32:44.479Z,9.93
2023-11-15T20:35:12.049Z,9.92
2023-11-15T20:37:39.645Z,9.93
2023-11-15T20:40:15.839Z,9.89
2023-11-15T20:42:47.440Z,9.83
2023-11-15T20:45:15.683Z,9.80
2023-11-15T20:47:43.691Z,9.88
2023-11-15T20:50:12.778Z,9.96
2023-11-15T20:52:40.940Z,9.95
2023-11-15T20:55:11.600Z,9.93
2023-11-15T20:57:40.122Z,9.90
2023-11-15T21:00:14.884Z,9.93
2023-11-15T21:02:42.494Z,9.84
2023-11-15T21:05:13.705Z,9.83
2023-11-15T21:07:41.326Z,9.78
2023-11-15T21:10:09.487Z,9.67
2023-11-15T21:12:37.426Z,9.62
2023-11-15T21:15:06.197Z,9.66
2023-11-15T21:17:34.198Z,9.56
2023-11-15T21:20:11.275Z,9.62
2023-11-15T21:22:45.902Z,9.60
2023-11-15T21:25:13.781Z,9.59
2023-11-15T21:27:43.131Z,9.63
2023-11-15T21:30:11.894Z,9.65
2023-11-15T21:32:41.451Z,9.70
2023-11-15T21:35:10.896Z,9.68
2023-11-15T21:37:42.805Z,9.64
2023-11-15T21:40:12.583Z,9.59
2023-11-15T21:42:40.551Z,9.55
2023-11-15T21:45:08.606Z,9.53
2023-11-15T21:47:35.823Z,9.48
2023-11-15T21:50:03.099Z,9.46
2023-11-15T21:52:30.558Z,9.42
2023-11-15T21:54:58.139Z,9.43
2023-11-15T21:57:25.380Z,9.31
2023-11-15T21:59:52.664Z,9.42
2023-11-15T22:02:20.441Z,9.39
2023-11-15T22:04:50.710Z,9.44
2023-11-15T22:07:17.999Z,9.43
2023-11-15T22:09:45.203Z,9.43
2023-11-15T22:12:12.443Z,9.42
2023-11-15T22:14:39.775Z,9.43
2023-11-15T22:17:06.915Z,9.49
2023-11-15T22:19:34.910Z,9.49
2023-11-15T22:22:02.216Z,9.49
2023-11-15T22:24:29.465Z,9.50
2023-11-15T22:26:56.693Z,9.54
2023-11-15T22:29:24.277Z,9.52
2023-11-15T22:31:52.950Z,9.51
2023-11-15T22:34:20.660Z,9.48
2023-11-15T22:36:47.926Z,9.48
2023-11-15T22:39:15.982Z,9.51
2023-11-15T22:41:43.097Z,9.50
2023-11-15T22:44:10.591Z,9.48
2023-11-15T22:46:37.883Z,9.41
2023-11-15T22:49:05.241Z,9.46
2023-11-15T22:51:33.002Z,9.56
2023-11-15T22:54:01.067Z,9.62
2023-11-15T22:56:28.377Z,9.54
2023-11-15T22:58:55.588Z,9.46
2023-11-15T23:01:22.872Z,9.50
2023-11-15T23:03:53.146Z,9.45
2023-11-15T23:06:20.523Z,9.43
2023-11-15T23:08:48.012Z,9.35
2023-11-15T23:11:15.863Z,9.28
2023-11-15T23:13:44.673Z,9.29
2023-11-15T23:16:12.611Z,9.28
2023-11-15T23:18:39.883Z,9.27
2023-11-15T23:21:09.316Z,9.34
2023-11-15T23:23:39.025Z,9.34
2023-11-15T23:26:07.967Z,9.30
2023-11-15T23:28:35.377Z,9.35
2023-11-15T23:31:02.685Z,9.40
2023-11-15T23:33:30.040Z,9.39
2023-11-15T23:35:57.356Z,9.34
2023-11-15T23:38:25.850Z,9.30
2023-11-15T23:40:55.020Z,9.29
2023-11-15T23:43:22.202Z,9.25
2023-11-15T23:45:51.430Z,9.16
2023-11-15T23:48:21.166Z,9.16
2023-11-15T23:50:49.605Z,9.16
2023-11-15T23:53:16.732Z,9.20
2023-11-15T23:55:45.055Z,9.19
2023-11-15T23:58:12.445Z,9.25
